• Join FlightAware (Why Join?)
  • Login
  • US Flag 
01:52AM EST


 

Airport Tracker/Info


-or-


 

Live Flight TrackerFlight Track Log ✈ UAL1197 ✈ 07-Jun-2013 ✈ KIAH - KTPA

Flight Track Log - Related Links

Times and Time Zones

All times are in EDT time to prevent confusion due to time zone crossing. See the UAL1197 flight status page for this flight to view local times or setup timezone preferences in your user account.

Time Position Orientation Groundspeed Altitude Reporting Facility
EDT Latitude Longitude Course Direction KTS MPH feet Rate Location/Type
08:19AM 29.9680 -95.3457 304° West 174 200 100  Level FlightAware ADS-B
08:19AM 29.9596 -95.3397 148° Southeast 176 203 600 2,625 Climbing FlightAware ADS-B
08:19AM 29.9569 -95.3369 138° Southeast 175 201 800 2,250 Climbing FlightAware ADS-B
08:19AM 29.9549 -95.3342 131° Southeast 177 204 900 1,500 Climbing FlightAware ADS-B
08:19AM 29.9529 -95.3312 128° Southeast 180 207 1,000 1,600 Climbing FlightAware ADS-B
08:20AM 29.9475 -95.3228 127° Southeast 192 221 1,300 1,500 Climbing FlightAware ADS-B
08:20AM 29.9417 -95.3147 130° Southeast 209 241 1,500 1,750 Climbing FlightAware ADS-B
08:20AM 29.9327 -95.3016 128° Southeast 220 253 2,000 2,800 Climbing FlightAware ADS-B
08:20AM 29.9228 -95.2867 127° Southeast 227 261 2,900 3,290 Climbing FlightAware ADS-B
08:20AM 29.9124 -95.2710 127° Southeast 235 270 3,700 2,063 Climbing FlightAware ADS-B
08:21AM 29.9017 -95.2547 127° Southeast 267 307 4,000 1,935 Climbing FlightAware ADS-B
08:21AM 29.8903 -95.2369 126° Southeast 278 320 4,700 3,200 Climbing FlightAware ADS-B
08:21AM 29.8783 -95.2178 126° Southeast 284 327 5,600 3,290 Climbing FlightAware ADS-B
08:21AM 29.8667 -95.1986 125° Southeast 289 333 6,400 3,097 Climbing FlightAware ADS-B
08:22AM 29.8550 -95.1791 123° Southeast 294 338 7,200 3,000 Climbing FlightAware ADS-B
08:22AM 29.8519 -95.1726 119° Southeast 298 343 7,400 2,667 Climbing FlightAware ADS-B
08:22AM 29.8458 -95.1528 104° East 306 352 8,000 2,667 Climbing FlightAware ADS-B
08:22AM 29.8443 -95.1442 101° East 306 352 8,200 2,824 Climbing FlightAware ADS-B
08:22AM 29.8419 -95.1251 98° East 310 357 8,800 3,111 Climbing FlightAware ADS-B
08:23AM 29.8385 -95.1000 99° East 317 365 9,600 2,368 Climbing FlightAware ADS-B
08:24AM 29.8222 -94.9932 100° East 365 420 11,800 2,374 Climbing FlightAware ADS-B
08:24AM 29.8131 -94.9349 100° East 377 434 13,200 2,500 Climbing FlightAware ADS-B
08:25AM 29.8036 -94.8731 100° East 396 456 14,300 2,143 Climbing FlightAware ADS-B
08:25AM 29.8001 -94.8485 99° East 402 463 14,700 2,429 Climbing FlightAware ADS-B
08:25AM 29.7964 -94.7830 94° East 410 472 16,000 2,739 Climbing FlightAware ADS-B
08:26AM 29.7903 -94.6466 93° East 419 482 18,900 2,710 Climbing FlightAware ADS-B
08:27AM 29.7871 -94.5777 93° East 422 486 20,200 2,164 Climbing FlightAware ADS-B
08:28AM 29.7770 -94.3697 93° East 447 514 23,300 1,918 Climbing FlightAware ADS-B
08:29AM 29.7734 -94.2957 93° East 458 527 24,100 1,582 Climbing FlightAware ADS-B
08:30AM 29.7658 -94.1461 93° East 472 543 25,700 1,648 Climbing FlightAware ADS-B
08:30AM 29.7618 -94.0674 93° East 478 550 26,600 1,484 Climbing FlightAware ADS-B
08:31AM 29.7534 -93.9091 94° East 493 567 28,000 1,290 Climbing FlightAware ADS-B
08:32AM 29.7491 -93.8259 93° East 501 577 28,600 1,143 Climbing FlightAware ADS-B
08:32AM 29.7446 -93.7426 94° East 508 585 29,200 1,161 Climbing FlightAware ADS-B
08:33AM 29.7402 -93.6611 94° East 513 590 29,800 1,300 Climbing FlightAware ADS-B
08:33AM 29.7357 -93.5780 94° East 516 594 30,500 65 Climbing FlightAware ADS-B
08:34AM 29.7300 -93.4480 93° East 513 590 29,900 -371 Descending FlightAware
08:35AM 29.7270 -93.3690 92° East 513 590 29,900 2,828 Level FlightAware
08:36AM 29.6967 -93.1724 100° East 515 593 34,000 2,972 Climbing FlightAware ADS-B
08:37AM 29.6719 -93.0225 101° East 509 586 35,300 1,458 Climbing FlightAware ADS-B
08:38AM 29.6494 -92.8877 101° East 503 579 36,600 1,390 Climbing FlightAware ADS-B
08:38AM 29.6362 -92.8091 101° East 495 570 37,200 1,068 Climbing FlightAware ADS-B
08:39AM 29.6180 -92.7009 101° East 492 566 37,900 787 Climbing FlightAware ADS-B
08:39AM 29.6111 -92.6656 101° East 493 567 38,000 444 Climbing Houston Center
08:40AM 29.5853 -92.5125 101° East 491 565 38,500 439 Climbing Houston Center
08:41AM 29.5586 -92.3561 101° East 499 574 38,900 195 Climbing Houston Center
08:42AM 29.5322 -92.2006 101° East 499 574 38,900 49 Level Houston Center
08:43AM 29.5053 -92.0447 101° East 500 575 39,000 49 Climbing Houston Center
08:44AM 29.4783 -91.8894 101° East 499 574 39,000  Level Houston Center
08:50AM 29.3280 -91.0350 101° East 485 558 39,000  Level FlightAware
08:51AM 29.3000 -90.8820 102° East 486 559 39,000  Level FlightAware
08:51AM 29.2860 -90.7990 101° East 486 559 39,000  Level FlightAware
08:52AM 29.2680 -90.6940 101° East 486 559 39,000  Level FlightAware
08:53AM 29.2540 -90.6160 102° East 486 559 39,000  Level FlightAware
08:54AM 29.2220 -90.4620 103° East 488 562 39,000  Level FlightAware
08:54AM 29.2070 -90.3690 100° East 488 562 39,000  Level FlightAware
08:55AM 29.1830 -90.2490 103° East 487 560 39,000  Level FlightAware
08:56AM 29.1590 -90.1210 102° East 486 559 39,000  Level FlightAware
08:57AM 29.1440 -90.0400 102° East 486 559 39,000  Level FlightAware
08:57AM 29.1180 -89.9050 102° East 484 557 39,000  Level FlightAware
08:59AM 29.0840 -89.7280 102° East 484 557 39,000  Level FlightAware
08:59AM 29.0600 -89.5990 102° East 482 555 39,000  Level FlightAware
09:00AM 29.0370 -89.4840 103° East 482 555 39,000  Level FlightAware
09:01AM 29.0150 -89.3720 103° East 482 555 39,000  Level FlightAware
09:01AM 28.9960 -89.2740 102° East 483 556 39,000  Level FlightAware
09:02AM 28.9740 -89.1630 103° East 483 556 39,000  Level FlightAware
09:03AM 28.9540 -89.0610 103° East 484 557 39,000  Level FlightAware
09:04AM 28.9360 -88.9700 103° East 484 557 39,000  Level FlightAware
09:05AM 28.9070 -88.8190 102° East 485 558 39,000  Level FlightAware
09:05AM 28.8920 -88.7400 102° East 485 558 39,000  Level FlightAware
09:06AM 28.8680 -88.6100 102° East 485 558 39,000  Level FlightAware
09:07AM 28.8540 -88.5360 102° East 485 558 39,000  Level FlightAware
09:08AM 28.8350 -88.4330 102° East 485 558 39,000  Level FlightAware
09:08AM 28.8210 -88.3550 102° East 485 558 39,000  Level FlightAware
09:09AM 28.8020 -88.2520 102° East 485 558 39,000  Level FlightAware
09:10AM 28.7880 -88.1780 102° East 485 558 39,000  Level FlightAware
09:10AM 28.7690 -88.0800 102° East 485 558 39,000  Level FlightAware
09:11AM 28.7550 -88.0030 102° East 485 558 39,000  Level FlightAware
09:12AM 28.7350 -87.8970 102° East 485 558 39,000  Level FlightAware
09:12AM 28.7200 -87.8160 102° East 485 558 39,000  Level FlightAware
09:13AM 28.7010 -87.7140 102° East 485 558 39,000  Level FlightAware
09:14AM 28.6870 -87.6380 102° East 485 558 39,000  Level FlightAware
09:14AM 28.5208 -87.4136 102° East 481 554 39,000  Level Houston Center
09:15AM 28.4792 -87.2692 108° East 484 557 39,000  Level Houston Center
09:16AM 28.4378 -87.1233 108° East 485 558 39,000  Level Houston Center
09:17AM 28.3947 -86.9769 108° East 491 565 39,000  Level Houston Center
09:18AM 28.3525 -86.8306 108° East 491 565 39,000  Level Houston Center
09:19AM 28.3083 -86.6833 109° East 495 570 39,000  Level Houston Center
09:20AM 28.2519 -86.4953 109° East 499 574 39,000 -48 Level Jacksonville Center
09:21AM 28.2100 -86.3500 108° East 489 563 38,900 -50 Descending Jacksonville Center
09:22AM 28.1697 -86.2097 108° East 489 563 38,900  Level Jacksonville Center
09:23AM 28.1256 -86.0625 109° East 489 563 38,900 50 Level Jacksonville Center
09:24AM 28.0831 -85.9200 109° East 496 571 39,000 -790 Climbing Jacksonville Center
09:31AM 27.8910 -84.9460 109° East 504 580 33,000 -855 Descending FlightAware
09:31AM 27.8930 -84.8730 88° East 504 580 33,000 -857 Level FlightAware
09:32AM 27.8950 -84.7260 89° East 512 589 31,800 -1,187 Descending FlightAware
09:33AM 27.8970 -84.6160 89° East 510 587 31,200 -951 Descending FlightAware
09:34AM 27.8980 -84.5080 89° East 511 588 30,500 -1,000 Descending FlightAware
09:34AM 27.9000 -84.3950 89° East 515 593 29,800 -758 Descending FlightAware
09:35AM 27.9030 -84.2580 89° East 517 595 29,300 -2,054 Descending FlightAware
09:36AM 27.9050 -84.0980 89° East 496 571 26,000 -3,060 Descending FlightAware
09:37AM 27.9060 -83.9890 89° East 484 557 24,200 -2,462 Descending FlightAware
09:38AM 27.9070 -83.9020 89° East 476 548 22,800 -977 Descending FlightAware
09:38AM 27.9090 -83.7960 89° East 476 548 22,800  Level FlightAware
09:39AM 27.9110 -83.6730 89° East 476 548 22,800  Level FlightAware
09:40AM 27.9120 -83.5950 89° East 476 548 22,800  Level FlightAware
09:41AM 27.9130 -83.5140 89° East 476 548 22,800  Level FlightAware
09:41AM 27.9150 -83.4150 89° East 476 548 22,800 -5,684 Level FlightAware
09:43AM 27.9150 -83.1860 90° East 390 449 10,200 -6,919 Descending FlightAware
09:43AM 27.9260 -83.1380 75° East 364 419 10,000 -429 Descending FlightAware
09:44AM 27.9370 -83.1130 64° Northeast 346 398 9,900 -136 Descending FlightAware
09:44AM 27.9540 -83.0760 63° Northeast 346 398 9,900 -353 Level FlightAware
09:45AM 27.9810 -83.0150 63° Northeast 311 358 9,500 -1,412 Descending FlightAware
09:45AM 28.0100 -82.9470 64° Northeast 299 344 7,900 -2,036 Descending FlightAware
09:46AM 28.0180 -82.9300 62° Northeast 299 344 7,600 -1,171 Descending FlightAware
09:46AM 28.0360 -82.8900 63° Northeast 291 335 7,100 -1,241 Descending FlightAware
09:47AM 28.0520 -82.8520 64° Northeast 290 334 6,400 -1,158 Descending FlightAware
09:47AM 28.0610 -82.8100 76° East 294 338 6,000 -621 Descending FlightAware
09:48AM 28.0630 -82.7630 87° East 292 336 5,800 -889 Descending FlightAware
09:48AM 28.0690 -82.7280 79° East 290 334 5,200 -906 Descending FlightAware
09:48AM 28.0890 -82.6900 59° Northeast 286 329 5,000 -222 Descending FlightAware
09:49AM 28.1060 -82.6600 57° Northeast 285 328 5,000 -566 Level FlightAware
09:49AM 28.1260 -82.6240 58° Northeast 289 333 4,500 -1,552 Descending FlightAware
09:50AM 28.1490 -82.5850 56° Northeast 289 333 3,500 -1,729 Descending FlightAware
09:50AM 28.1630 -82.5470 67° East 265 305 2,800 -1,500 Descending FlightAware
09:51AM 28.1520 -82.5180 113° Southeast 230 265 2,100 -1,231 Descending FlightAware
09:51AM 28.1410 -82.5140 162° South 201 231 2,000 -188 Descending FlightAware
09:51AM 28.1240 -82.5200 197° South 182 209 2,000  Level FlightAware
09:52AM 28.1040 -82.5250 192° South 181 208 2,000  Level FlightAware
09:52AM 28.0910 -82.5250 180° South 178 205 2,000 -632 Level FlightAware
09:52AM 28.0730 -82.5250 180° South 167 192 1,600 -889 Descending FlightAware
09:53AM 28.0510 -82.5260 182° South 145 167 1,200 -677 Descending FlightAware
09:53AM 28.0300 -82.5270 182° South 149 171 900 -724 Descending FlightAware
09:54AM 28.0110 -82.5270 180° South 146 168 500 -818 Descending FlightAware
09:54AM 28.0000 -82.5280 185° South 144 166 300 -267 Descending FlightAware
09:55AM 27.9830 -82.5280 180° South 144 166 300  Level FlightAware